LSMA METAR and TAF | Updated Today

LSMA METAR

Alpnach Air Base

Observation time: 26 min. ago

LSMA 062020Z AUTO 21003KT 180V240 9999NDV BKN034 15/13 Q1029 RMK

Need help? Read our tutorial on how to read METARs or read the parsed version below.

Alpnach Air Base (LSMA) METAR

  • Weather conditions on Thu, 06 Oct 2022 20:20:00 +0000 (26 min. ago):
  • Present conditions: Dry
  • Clouds: Broken sky at 1036 meters
  • Visibility:
  • Wind: 210 degrees at 3 knots
  • Temperature: 15 celsius
  • Dew point: 13 celsius
  • Pressure: 1029 millibars
  • Remarks: None


Useful to know...